Time;durP1;ratioP1;P1;durP2;ratioP2;P2;SDS_P1;SDS_P2;PMS_P1;PMS_P2;Temp;Humidity;BMP_temperature;BMP_pressure;BME280_temperature;BME280_humidity;BME280_pressure;Samples;Min_cycle;Max_cycle;Signal;HPM_P1;HPM_P2
2023/03/04 07:36:57;;;;;;;;;;;;;;;1.39;70.78;98618.81;6210736;23;19927;-61
2023/03/04 07:39:22;;;;;;;;;;;;;;;1.39;70.41;98618.81;6214690;23;19920;-59
2023/03/04 07:41:48;;;;;;;;;;;;;;;1.25;70.20;98626.06;6210234;23;19982;-61
2023/03/04 07:44:13;;;;;;;;;;;;;;;1.12;69.66;98626.34;6211114;23;20343;-59
2023/03/04 07:46:38;;;;;;;;;;;;;;;1.01;70.23;98622.31;6214080;23;20401;-61
2023/03/04 07:49:03;;;;;;;;;;;;;;;0.88;70.99;98616.59;6187417;23;19918;-61
2023/03/04 07:51:28;;;;;;;;;;;;;;;0.94;71.20;98622.47;6210982;23;20008;-58
2023/03/04 07:53:58;;;;;;;;;;;;;;;1.05;70.58;98621.38;6212524;23;19931;-59
2023/03/04 07:56:24;;;;;;;;;;;;;;;1.26;71.03;98627.75;6185554;23;19912;-61
2023/03/04 07:58:52;;;;;;;;;;;;;;;1.37;70.30;98625.75;6214497;23;19915;-60
2023/03/04 08:01:17;;;;;;;;;;;;;;;1.40;70.86;98628.25;6188201;23;19939;-61
2023/03/04 08:03:43;;;;;;;;;;;;;;;1.47;70.69;98623.78;6184343;23;19920;-59
2023/03/04 08:06:09;;;;;;;;;;;;;;;1.40;70.57;98620.50;6185003;23;20448;-59
2023/03/04 08:08:34;;;;;;;;;;;;;;;1.49;70.36;98628.03;6213506;23;20295;-58
2023/03/04 08:10:59;;;;;;;;;;;;;;;1.65;69.69;98626.75;6185688;23;19908;-61
2023/03/04 08:13:24;;;;;;;;;;;;;;;1.65;68.85;98626.75;6213291;23;19916;-61
2023/03/04 08:15:50;;;;;;;;;;;;;;;1.65;69.09;98631.94;6211604;23;19912;-61
2023/03/04 08:18:15;;;;;;;;;;;;;;;1.73;69.16;98628.31;6213707;23;19994;-61
2023/03/04 08:20:41;;;;;;;;;;;;;;;1.48;69.70;98636.69;6214012;23;19936;-61
2023/03/04 08:23:07;;;;;;;;;;;;;;;1.27;70.27;98632.03;6213278;23;19908;-62
2023/03/04 08:25:32;;;;;;;;;;;;;;;1.43;70.05;98628.19;6212206;23;19908;-62
2023/03/04 08:27:57;;;;;;;;;;;;;;;1.53;70.17;98621.91;6213075;23;19919;-62
2023/03/04 08:30:22;;;;;;;;;;;;;;;1.58;69.79;98630.41;6214048;23;19912;-62
2023/03/04 08:32:48;;;;;;;;;;;;;;;1.66;69.38;98628.44;6213979;23;19966;-62
2023/03/04 08:35:13;;;;;;;;;;;;;;;1.79;69.29;98628.13;6212425;23;19916;-61
2023/03/04 08:37:38;;;;;;;;;;;;;;;1.91;69.28;98632.97;6213486;23;19918;-62
2023/03/04 08:40:03;;;;;;;;;;;;;;;1.78;68.62;98636.78;6212629;23;19912;-62
2023/03/04 08:42:29;;;;;;;;;;;;;;;1.46;70.25;98632.44;6211289;23;19915;-62
2023/03/04 08:44:54;;;;;;;;;;;;;;;1.73;69.79;98628.31;6212222;23;19908;-62
2023/03/04 08:47:19;;;;;;;;;;;;;;;1.85;68.60;98622.78;6212362;23;19967;-62
2023/03/04 08:49:44;;;;;;;;;;;;;;;1.93;68.49;98631.22;6211566;23;19916;-61
2023/03/04 08:52:09;;;;;;;;;;;;;;;1.97;68.51;98619.88;6212436;23;19915;-61
2023/03/04 08:54:35;;;;;;;;;;;;;;;1.94;68.40;98627.72;6212578;23;20335;-63
2023/03/04 08:57:00;;;;;;;;;;;;;;;2.09;68.67;98621.28;6213803;23;20359;-63
2023/03/04 08:59:25;;;;;;;;;;;;;;;2.22;67.73;98617.44;6212782;23;20329;-63
2023/03/04 09:01:50;;;;;;;;;;;;;;;2.13;67.42;98626.34;6212251;23;20255;-63
2023/03/04 09:04:16;;;;;;;;;;;;;;;2.10;66.76;98631.59;6211346;23;20243;-61
2023/03/04 09:06:41;;;;;;;;;;;;;;;2.02;66.33;98635.28;6210004;23;20232;-60
2023/03/04 09:09:06;;;;;;;;;;;;;;;2.00;66.39;98637.06;6212562;23;20240;-61
2023/03/04 09:11:31;;;;;;;;;;;;;;;2.03;65.96;98627.47;6212443;23;20339;-63
2023/03/04 09:13:57;;;;;;;;;;;;;;;2.21;65.79;98626.13;6213098;23;19915;-62
2023/03/04 09:16:22;;;;;;;;;;;;;;;2.18;64.98;98625.34;6185276;23;19998;-60
2023/03/04 09:18:47;;;;;;;;;;;;;;;2.00;65.13;98637.91;6186860;23;19943;-63
2023/03/04 09:21:12;;;;;;;;;;;;;;;1.91;64.99;98638.16;6212288;23;19947;-60
2023/03/04 09:23:38;;;;;;;;;;;;;;;1.83;64.99;98635.78;6212602;23;19912;-62
2023/03/04 09:26:32;;;;;;;;;;;;;;;1.71;65.46;98625.75;6185904;23;19912;-62
2023/03/04 09:28:58;;;;;;;;;;;;;;;1.99;65.61;98635.34;6091518;23;19914;-62
2023/03/04 09:31:23;;;;;;;;;;;;;;;1.96;65.15;98638.00;6066090;23;19913;-61
2023/03/04 09:33:48;;;;;;;;;;;;;;;1.86;65.58;98634.84;6091448;23;19909;-62
2023/03/04 09:36:13;;;;;;;;;;;;;;;1.84;65.67;98640.03;6067400;23;19924;-62
2023/03/04 09:38:39;;;;;;;;;;;;;;;1.92;65.97;98642.41;6091536;23;19909;-63
2023/03/04 09:41:08;;;;;;;;;;;;;;;1.90;65.94;98641.63;6091728;23;19909;-62
2023/03/04 09:43:33;;;;;;;;;;;;;;;1.99;65.00;98640.53;6091007;23;19910;-63
2023/03/04 09:46:02;;;;;;;;;;;;;;;1.92;65.95;98639.00;6089398;23;19909;-61
2023/03/04 09:48:27;;;;;;;;;;;;;;;2.13;64.98;98633.22;6093586;23;20379;-60
2023/03/04 09:51:02;;;;;;;;;;;;;;;2.27;64.59;98632.84;6062341;23;19913;-63
2023/03/04 09:53:34;;;;;;;;;;;;;;;2.40;64.03;98636.78;6091454;23;19914;-62
2023/03/04 09:56:01;;;;;;;;;;;;;;;2.50;63.57;98638.22;6068392;23;20272;-63
2023/03/04 09:58:29;;;;;;;;;;;;;;;2.42;63.48;98635.00;6093309;23;19939;-63
2023/03/04 10:01:00;;;;;;;;;;;;;;;2.28;63.80;98637.16;6068466;23;19913;-63
2023/03/04 10:03:51;;;;;;;;;;;;;;;2.20;64.24;98629.56;6068277;23;19988;-62
2023/03/04 10:06:17;;;;;;;;;;;;;;;2.12;64.56;98632.38;6192360;23;19908;-60
2023/03/04 10:08:45;;;;;;;;;;;;;;;2.38;64.13;98628.22;6188301;23;19912;-61
2023/03/04 10:11:31;;;;;;;;;;;;;;;2.60;63.75;98626.69;6215063;23;20332;-60
2023/03/04 10:13:59;;;;;;;;;;;;;;;2.60;62.96;98629.28;6187304;23;19919;-61
2023/03/04 10:16:25;;;;;;;;;;;;;;;2.54;62.85;98634.63;6187409;23;20134;-63
2023/03/04 10:18:52;;;;;;;;;;;;;;;2.58;62.63;98635.38;6188396;23;19932;-62
2023/03/04 10:21:37;;;;;;;;;;;;;;;2.58;62.51;98625.03;6188440;23;19914;-61
2023/03/04 10:24:16;;;;;;;;;;;;;;;2.72;62.10;98622.03;6213833;23;19908;-62
2023/03/04 10:26:43;;;;;;;;;;;;;;;2.71;62.15;98617.75;6186546;23;20386;-62
2023/03/04 10:29:12;;;;;;;;;;;;;;;2.89;61.62;98618.94;6188120;23;19911;-63
2023/03/04 10:31:37;;;;;;;;;;;;;;;2.74;61.36;98615.06;6188072;23;20324;-63
2023/03/04 10:34:03;;;;;;;;;;;;;;;2.82;61.57;98613.09;6213868;23;19908;-63
2023/03/04 10:36:28;;;;;;;;;;;;;;;2.82;61.82;98605.31;6211831;23;20501;-62
2023/03/04 10:38:54;;;;;;;;;;;;;;;2.98;60.63;98619.50;6208701;23;19957;-62
2023/03/04 10:41:19;;;;;;;;;;;;;;;2.95;60.27;98619.59;6185591;23;19908;-63
2023/03/04 10:43:57;;;;;;;;;;;;;;;2.89;60.28;98614.63;6212360;23;19911;-63
2023/03/04 10:46:22;;;;;;;;;;;;;;;2.91;60.32;98617.16;6212992;23;20359;-63
2023/03/04 10:48:47;;;;;;;;;;;;;;;3.06;60.29;98609.75;6188001;23;19911;-63
2023/03/04 10:51:23;;;;;;;;;;;;;;;3.20;59.86;98605.84;6187388;23;20103;-63
2023/03/04 10:53:49;;;;;;;;;;;;;;;2.98;59.95;98611.72;6187894;23;19908;-62
2023/03/04 10:56:30;;;;;;;;;;;;;;;2.96;60.15;98610.06;6186808;23;19912;-63
2023/03/04 10:59:14;;;;;;;;;;;;;;;3.12;59.73;98613.03;6188022;23;19913;-62
2023/03/04 11:01:40;;;;;;;;;;;;;;;3.24;58.75;98612.66;6213895;23;20335;-63
2023/03/04 11:04:08;;;;;;;;;;;;;;;3.32;59.04;98614.09;6187641;23;19907;-63
2023/03/04 11:06:36;;;;;;;;;;;;;;;3.49;58.34;98616.13;6185906;23;19908;-63
2023/03/04 11:09:02;;;;;;;;;;;;;;;3.32;58.39;98613.25;6187629;23;20348;-63
2023/03/04 11:11:28;;;;;;;;;;;;;;;3.28;59.36;98609.06;6213316;23;19915;-63
2023/03/04 11:13:55;;;;;;;;;;;;;;;3.40;58.85;98611.22;6214119;23;19912;-63
2023/03/04 11:16:24;;;;;;;;;;;;;;;3.48;57.52;98604.06;6187351;23;19908;-63
2023/03/04 11:18:50;;;;;;;;;;;;;;;3.48;57.74;98611.84;6188201;23;20289;-63
2023/03/04 11:21:19;;;;;;;;;;;;;;;3.44;57.91;98605.06;6188247;23;19912;-63
2023/03/04 11:24:03;;;;;;;;;;;;;;;3.22;58.27;98606.66;6187751;23;19918;-63
2023/03/04 11:26:47;;;;;;;;;;;;;;;3.24;58.98;98610.06;6212474;23;19908;-63
2023/03/04 11:29:32;;;;;;;;;;;;;;;3.34;58.55;98608.88;6214475;23;20323;-64
2023/03/04 11:32:05;;;;;;;;;;;;;;;3.40;59.21;98598.25;6187697;23;19908;-64
2023/03/04 11:34:33;;;;;;;;;;;;;;;3.43;58.20;98605.09;6186742;23;19966;-64
2023/03/04 11:37:05;;;;;;;;;;;;;;;3.36;58.83;98604.44;6187739;23;19912;-65
2023/03/04 11:39:46;;;;;;;;;;;;;;;3.45;58.82;98598.13;6214894;23;19914;-64
2023/03/04 11:42:12;;;;;;;;;;;;;;;3.49;58.57;98592.78;6188031;23;20322;-64
2023/03/04 11:44:37;;;;;;;;;;;;;;;3.43;59.02;98585.19;6213351;23;19908;-62
2023/03/04 11:47:21;;;;;;;;;;;;;;;3.57;58.12;98589.91;6213900;23;19915;-62
2023/03/04 11:49:46;;;;;;;;;;;;;;;3.54;58.87;98582.25;6213783;23;20281;-62
2023/03/04 11:52:11;;;;;;;;;;;;;;;3.63;58.43;98591.47;6213868;23;19915;-62
2023/03/04 11:54:50;;;;;;;;;;;;;;;3.36;59.06;98577.69;6212815;23;19982;-63
2023/03/04 11:57:34;;;;;;;;;;;;;;;3.35;59.23;98565.63;6186507;23;19907;-63
2023/03/04 12:00:20;;;;;;;;;;;;;;;3.36;59.41;98565.56;6213774;23;19930;-62
2023/03/04 12:02:59;;;;;;;;;;;;;;;3.19;59.78;98566.13;6150980;23;19908;-64
2023/03/04 12:05:36;;;;;;;;;;;;;;;3.16;59.32;98563.63;6185562;23;19916;-63
2023/03/04 12:08:11;;;;;;;;;;;;;;;3.05;60.01;98563.13;6187141;23;19961;-62
2023/03/04 12:10:51;;;;;;;;;;;;;;;2.84;60.79;98556.91;6214032;23;19908;-63
2023/03/04 12:13:30;;;;;;;;;;;;;;;2.84;61.19;98549.13;6186968;23;19912;-63
2023/03/04 12:16:13;;;;;;;;;;;;;;;2.79;61.51;98556.22;6160222;23;20294;-63
2023/03/04 12:18:45;;;;;;;;;;;;;;;2.84;61.59;98551.72;6211899;23;19939;-64
2023/03/04 12:21:16;;;;;;;;;;;;;;;2.80;61.70;98547.53;6187166;23;19935;-63
2023/03/04 12:24:06;;;;;;;;;;;;;;;2.81;61.94;98544.03;6213071;23;19908;-64
2023/03/04 12:26:34;;;;;;;;;;;;;;;2.86;62.37;98547.34;6185508;23;19915;-64
2023/03/04 12:29:06;;;;;;;;;;;;;;;2.88;62.49;98542.94;6211421;23;19912;-64
2023/03/04 12:31:31;;;;;;;;;;;;;;;2.99;61.57;98543.44;6186794;23;19962;-63
2023/03/04 12:34:15;;;;;;;;;;;;;;;2.83;61.43;98542.25;6211176;23;19916;-64
2023/03/04 12:36:46;;;;;;;;;;;;;;;2.83;61.52;98539.69;6184668;23;19955;-62
2023/03/04 12:39:26;;;;;;;;;;;;;;;2.79;61.10;98536.34;6213573;23;19960;-64
2023/03/04 12:41:58;;;;;;;;;;;;;;;2.90;61.64;98536.00;6186822;23;19908;-62
2023/03/04 12:44:23;;;;;;;;;;;;;;;2.99;61.57;98527.91;6213302;23;19973;-64
2023/03/04 12:46:48;;;;;;;;;;;;;;;3.05;61.23;98538.06;6212711;23;20331;-65
2023/03/04 12:49:15;;;;;;;;;;;;;;;3.05;61.14;98527.69;6212847;23;19967;-64
2023/03/04 12:51:40;;;;;;;;;;;;;;;2.97;61.25;98529.72;6186765;23;19912;-63
2023/03/04 12:54:24;;;;;;;;;;;;;;;2.97;61.30;98529.72;6213683;23;19938;-63
2023/03/04 12:57:08;;;;;;;;;;;;;;;3.15;61.22;98527.41;6212459;23;20232;-63
2023/03/04 12:59:39;;;;;;;;;;;;;;;3.18;60.38;98524.72;6186693;23;19907;-63
2023/03/04 13:02:10;;;;;;;;;;;;;;;3.27;61.08;98516.63;6186449;23;19919;-64
2023/03/04 13:04:44;;;;;;;;;;;;;;;3.44;60.50;98514.31;6212914;23;19911;-64
2023/03/04 13:07:13;;;;;;;;;;;;;;;3.42;60.17;98520.44;6211017;23;19919;-64
2023/03/04 13:09:58;;;;;;;;;;;;;;;3.52;60.30;98519.22;6161023;23;19951;-63
2023/03/04 13:12:23;;;;;;;;;;;;;;;3.60;60.19;98508.56;6185981;23;19990;-63
2023/03/04 13:15:07;;;;;;;;;;;;;;;3.66;58.83;98505.75;6211870;23;19993;-62
2023/03/04 13:17:41;;;;;;;;;;;;;;;3.56;60.13;98513.00;6212749;23;20255;-64
2023/03/04 13:20:25;;;;;;;;;;;;;;;3.66;59.78;98508.34;6212968;23;19978;-63
2023/03/04 13:22:56;;;;;;;;;;;;;;;3.77;59.56;98501.88;6186444;23;20236;-63
2023/03/04 13:25:25;;;;;;;;;;;;;;;3.88;59.44;98491.09;6185844;23;20324;-65
2023/03/04 13:28:04;;;;;;;;;;;;;;;3.90;58.78;98488.44;6210813;23;20002;-63
2023/03/04 13:30:33;;;;;;;;;;;;;;;3.93;58.54;98491.78;6187177;23;20339;-64
2023/03/04 13:33:07;;;;;;;;;;;;;;;4.00;58.53;98487.22;6212359;23;19963;-64
2023/03/04 13:35:45;;;;;;;;;;;;;;;4.11;58.44;98484.19;6210845;23;19966;-63
2023/03/04 13:38:25;;;;;;;;;;;;;;;4.02;58.74;98480.19;6211813;23;19931;-62
2023/03/04 13:41:06;;;;;;;;;;;;;;;4.10;58.81;98487.72;6212329;23;19908;-61
2023/03/04 13:43:50;;;;;;;;;;;;;;;4.19;58.73;98482.16;6212827;23;20355;-62
2023/03/04 13:46:19;;;;;;;;;;;;;;;4.22;58.91;98482.03;6212951;23;20034;-62
2023/03/04 13:48:45;;;;;;;;;;;;;;;4.24;59.07;98481.06;6212157;23;20330;-62
2023/03/04 13:51:13;;;;;;;;;;;;;;;4.23;59.16;98475.94;6185702;23;19931;-62
2023/03/04 13:53:59;;;;;;;;;;;;;;;4.20;59.08;98469.13;6186520;23;19912;-62
2023/03/04 13:56:25;;;;;;;;;;;;;;;4.07;59.18;98473.09;6150133;23;20406;-62
2023/03/04 13:59:08;;;;;;;;;;;;;;;4.07;58.92;98467.06;6185914;23;19955;-61
2023/03/04 14:01:40;;;;;;;;;;;;;;;4.86;64.13;98471.69;6179598;23;19982;-62
2023/03/04 14:04:14;;;;;;;;;;;;;;;4.85;59.84;98467.41;6209182;23;19984;-62
2023/03/04 14:06:42;;;;;;;;;;;;;;;4.83;59.82;98465.78;6209435;23;20252;-61
2023/03/04 14:09:14;;;;;;;;;;;;;;;4.88;60.58;98461.22;6212104;23;20459;-60
2023/03/04 14:11:42;;;;;;;;;;;;;;;4.81;58.66;98464.97;6211961;23;19921;-60
2023/03/04 14:14:11;;;;;;;;;;;;;;;4.86;59.76;98457.84;6184976;23;20247;-61
2023/03/04 14:16:43;;;;;;;;;;;;;;;4.77;58.27;98459.06;6185517;23;20026;-61
2023/03/04 14:19:13;;;;;;;;;;;;;;;4.82;59.52;98456.25;6186050;23;19970;-60
2023/03/04 14:21:42;;;;;;;;;;;;;;;4.89;60.23;98452.53;6184400;23;20619;-60
2023/03/04 14:24:10;;;;;;;;;;;;;;;4.79;58.52;98454.66;6184887;23;19908;-61
2023/03/04 14:26:36;;;;;;;;;;;;;;;4.77;60.09;98443.47;6209534;23;19915;-60
2023/03/04 14:29:01;;;;;;;;;;;;;;;4.87;60.44;98439.59;6185245;23;19912;-63
2023/03/04 14:31:28;;;;;;;;;;;;;;;4.90;59.44;98439.47;6211308;23;20363;-62
2023/03/04 14:34:03;;;;;;;;;;;;;;;4.91;59.67;98435.94;6185804;23;19915;-63
2023/03/04 14:36:30;;;;;;;;;;;;;;;4.93;58.48;98438.50;6185975;23;20247;-63
2023/03/04 14:38:57;;;;;;;;;;;;;;;4.86;59.16;98432.69;6213424;23;20344;-63
2023/03/04 14:41:36;;;;;;;;;;;;;;;4.95;59.76;98436.66;6185884;23;19935;-61
2023/03/04 14:44:04;;;;;;;;;;;;;;;4.83;58.16;98427.63;6184450;23;20259;-61
2023/03/04 14:46:49;;;;;;;;;;;;;;;4.79;58.43;98431.28;6212690;23;19954;-62
2023/03/04 14:49:14;;;;;;;;;;;;;;;4.73;58.31;98427.16;6187657;23;19975;-62
2023/03/04 14:51:45;;;;;;;;;;;;;;;4.62;59.30;98418.13;6214287;23;20375;-61
2023/03/04 14:54:23;;;;;;;;;;;;;;;4.56;58.44;98428.78;6213857;23;19939;-62
2023/03/04 14:56:49;;;;;;;;;;;;;;;4.47;58.67;98423.03;6187441;23;20065;-61
2023/03/04 14:59:14;;;;;;;;;;;;;;;4.46;60.32;98418.75;6214811;23;20344;-62
2023/03/04 15:01:39;;;;;;;;;;;;;;;4.55;61.28;98417.53;6214771;23;19916;-62
2023/03/04 15:04:05;;;;;;;;;;;;;;;4.58;59.71;98413.97;6215144;23;19912;-62
2023/03/04 15:06:34;;;;;;;;;;;;;;;4.57;59.56;98420.91;6189073;23;19915;-62
2023/03/04 15:09:00;;;;;;;;;;;;;;;4.59;59.58;98413.06;6210871;23;19916;-61
2023/03/04 15:11:30;;;;;;;;;;;;;;;4.62;59.06;98411.19;6185571;23;19908;-62
2023/03/04 15:13:55;;;;;;;;;;;;;;;4.55;59.49;98403.72;6187216;23;19912;-62
2023/03/04 15:16:22;;;;;;;;;;;;;;;4.44;59.88;98410.19;6214572;23;20247;-63
2023/03/04 15:18:59;;;;;;;;;;;;;;;4.37;59.10;98408.75;6214828;23;19907;-62
2023/03/04 15:21:27;;;;;;;;;;;;;;;4.39;59.45;98406.91;6215313;23;19934;-63
2023/03/04 15:23:52;;;;;;;;;;;;;;;4.34;59.62;98405.44;6187952;23;20390;-62
2023/03/04 15:26:17;;;;;;;;;;;;;;;4.27;59.77;98399.63;6215171;23;19907;-63
2023/03/04 15:28:42;;;;;;;;;;;;;;;4.29;60.43;98400.41;6214227;23;20015;-62
2023/03/04 15:31:14;;;;;;;;;;;;;;;4.38;60.32;98409.59;6188704;23;19908;-62
2023/03/04 15:33:40;;;;;;;;;;;;;;;4.27;60.64;98402.22;6213575;23;19994;-62
2023/03/04 15:36:06;;;;;;;;;;;;;;;4.23;60.58;98405.81;6215018;23;19936;-62
2023/03/04 15:38:31;;;;;;;;;;;;;;;4.33;62.34;98401.13;6188491;23;19912;-62
2023/03/04 15:40:59;;;;;;;;;;;;;;;4.43;62.68;98407.63;6214756;23;19918;-62
2023/03/04 15:43:24;;;;;;;;;;;;;;;4.42;60.47;98396.41;6187835;23;19970;-62
2023/03/04 15:45:50;;;;;;;;;;;;;;;4.40;60.72;98395.59;6214672;23;19908;-62
2023/03/04 15:48:15;;;;;;;;;;;;;;;4.34;60.13;98397.63;6188275;23;19912;-62
2023/03/04 15:50:42;;;;;;;;;;;;;;;4.24;59.73;98394.56;6187757;23;19907;-62
2023/03/04 15:53:12;;;;;;;;;;;;;;;4.06;60.05;98390.94;6213660;23;20391;-62
2023/03/04 15:55:37;;;;;;;;;;;;;;;3.96;60.34;98392.22;6213506;23;19911;-61
2023/03/04 15:58:03;;;;;;;;;;;;;;;3.91;60.67;98388.94;6214079;23;20405;-61
2023/03/04 16:00:29;;;;;;;;;;;;;;;3.84;60.53;98393.50;6214552;23;20331;-61
2023/03/04 16:02:55;;;;;;;;;;;;;;;3.79;60.40;98393.69;6213129;23;20246;-61
2023/03/04 16:05:20;;;;;;;;;;;;;;;3.78;61.12;98388.53;6184411;23;19911;-62
2023/03/04 16:07:46;;;;;;;;;;;;;;;3.78;60.88;98391.13;6211410;23;19918;-62
2023/03/04 16:10:16;;;;;;;;;;;;;;;3.76;61.02;98390.38;6187869;23;19908;-61
2023/03/04 16:12:41;;;;;;;;;;;;;;;3.62;61.90;98388.31;6186141;23;19930;-62
2023/03/04 16:15:16;;;;;;;;;;;;;;;3.53;62.15;98391.22;6212697;23;20380;-62
2023/03/04 16:17:42;;;;;;;;;;;;;;;3.53;62.42;98389.47;6163054;23;19908;-62
2023/03/04 16:20:09;;;;;;;;;;;;;;;3.53;62.11;98389.47;6188224;23;20247;-62
2023/03/04 16:22:35;;;;;;;;;;;;;;;3.49;62.19;98392.25;6187985;23;19990;-62
2023/03/04 16:25:00;;;;;;;;;;;;;;;3.40;63.03;98388.22;6212791;23;19955;-63
2023/03/04 16:27:25;;;;;;;;;;;;;;;3.34;63.17;98388.47;6187655;23;19912;-62
2023/03/04 16:29:50;;;;;;;;;;;;;;;3.32;63.27;98390.25;6188135;23;19915;-63
2023/03/04 16:32:16;;;;;;;;;;;;;;;3.27;63.24;98387.00;6214176;23;19908;-62
2023/03/04 16:34:41;;;;;;;;;;;;;;;3.24;63.55;98382.78;6186467;23;19911;-62
2023/03/04 16:37:10;;;;;;;;;;;;;;;3.26;62.84;98375.78;6210984;23;19911;-62
2023/03/04 16:39:35;;;;;;;;;;;;;;;3.23;63.54;98380.22;6188035;23;19911;-62
2023/03/04 16:42:01;;;;;;;;;;;;;;;3.26;63.25;98372.34;6187921;23;19908;-62
2023/03/04 16:44:26;;;;;;;;;;;;;;;3.23;63.66;98375.88;6187671;23;19908;-62
2023/03/04 16:46:52;;;;;;;;;;;;;;;3.24;63.46;98380.19;6210931;23;19938;-62
2023/03/04 16:49:17;;;;;;;;;;;;;;;3.20;63.82;98376.00;6213162;23;20332;-63
2023/03/04 16:51:44;;;;;;;;;;;;;;;3.22;63.61;98375.94;6212362;23;19914;-62
2023/03/04 16:54:14;;;;;;;;;;;;;;;3.18;63.92;98376.97;6187890;23;19958;-62
2023/03/04 16:56:39;;;;;;;;;;;;;;;3.19;63.49;98379.47;6187743;23;19912;-62
2023/03/04 16:59:04;;;;;;;;;;;;;;;3.20;63.61;98380.31;6214456;23;20064;-62
2023/03/04 17:01:30;;;;;;;;;;;;;;;3.15;63.85;98374.47;6212034;23;19934;-62
2023/03/04 17:03:55;;;;;;;;;;;;;;;3.11;63.93;98372.91;6212890;23;19912;-62
2023/03/04 17:06:20;;;;;;;;;;;;;;;3.11;64.45;98375.50;6214292;23;20031;-62
2023/03/04 17:08:45;;;;;;;;;;;;;;;3.06;64.66;98379.09;6214582;23;19958;-62
2023/03/04 17:11:20;;;;;;;;;;;;;;;3.06;64.87;98384.28;6213464;23;19962;-62
2023/03/04 17:13:45;;;;;;;;;;;;;;;3.06;64.65;98384.28;6186754;23;19935;-62
2023/03/04 17:16:11;;;;;;;;;;;;;;;3.09;64.22;98376.38;6214157;23;19993;-62
2023/03/04 17:18:37;;;;;;;;;;;;;;;3.09;64.35;98388.50;6214235;23;19915;-62
2023/03/04 17:21:03;;;;;;;;;;;;;;;3.06;64.62;98388.59;6186999;23;19908;-62
2023/03/04 17:23:28;;;;;;;;;;;;;;;3.06;64.17;98379.09;6182395;23;19916;-62
2023/03/04 17:25:57;;;;;;;;;;;;;;;3.05;64.38;98387.75;6214022;23;20283;-62
2023/03/04 17:28:22;;;;;;;;;;;;;;;3.05;64.49;98392.09;6214101;23;19966;-62
2023/03/04 17:30:47;;;;;;;;;;;;;;;3.03;64.74;98397.34;6213868;23;19908;-62
2023/03/04 17:33:12;;;;;;;;;;;;;;;3.05;64.88;98397.28;6185006;23;19974;-62
2023/03/04 17:35:38;;;;;;;;;;;;;;;3.04;64.89;98399.03;6211914;23;19924;-61
2023/03/04 17:38:03;;;;;;;;;;;;;;;3.03;64.77;98394.75;6214099;23;19908;-61
2023/03/04 17:40:28;;;;;;;;;;;;;;;3.02;65.12;98387.84;6213884;23;20362;-61
2023/03/04 17:42:54;;;;;;;;;;;;;;;3.03;65.48;98394.75;6212684;23;20328;-61
2023/03/04 17:45:19;;;;;;;;;;;;;;;3.08;64.79;98392.84;6212228;23;20321;-62
2023/03/04 17:47:44;;;;;;;;;;;;;;;3.06;64.85;98381.69;6214136;23;20287;-61
2023/03/04 17:50:10;;;;;;;;;;;;;;;3.11;65.16;98385.84;6213663;23;20227;-61
2023/03/04 17:52:35;;;;;;;;;;;;;;;3.07;65.19;98379.94;6212233;23;20291;-61
2023/03/04 17:55:00;;;;;;;;;;;;;;;3.11;66.51;98375.50;6211362;23;19908;-61
2023/03/04 17:57:25;;;;;;;;;;;;;;;3.16;66.69;98374.41;6214325;23;20332;-62
2023/03/04 17:59:50;;;;;;;;;;;;;;;3.11;65.35;98378.94;6214257;23;20431;-65
2023/03/04 18:02:16;;;;;;;;;;;;;;;3.06;65.55;98379.09;6211519;23;20254;-62
2023/03/04 18:04:41;;;;;;;;;;;;;;;3.03;65.60;98384.38;6212868;23;20489;-62
2023/03/04 18:07:06;;;;;;;;;;;;;;;2.99;65.47;98382.78;6214566;23;19912;-63
2023/03/04 18:09:32;;;;;;;;;;;;;;;3.02;65.43;98384.44;6216307;23;20336;-62
2023/03/04 18:11:57;;;;;;;;;;;;;;;2.93;65.50;98383.03;6164076;23;20397;-62
2023/03/04 18:14:25;;;;;;;;;;;;;;;2.90;65.91;98382.28;6214606;23;19908;-63
2023/03/04 18:16:50;;;;;;;;;;;;;;;2.87;66.69;98382.38;6214882;23;19915;-63
2023/03/04 18:19:16;;;;;;;;;;;;;;;2.87;66.17;98375.44;6215935;23;19944;-62
2023/03/04 18:21:42;;;;;;;;;;;;;;;2.84;66.54;98380.75;6215457;23;19918;-62
2023/03/04 18:24:08;;;;;;;;;;;;;;;2.78;67.07;98375.75;6215379;23;19919;-62
2023/03/04 18:26:33;;;;;;;;;;;;;;;2.78;66.80;98374.00;6215004;23;19908;-62
2023/03/04 18:28:59;;;;;;;;;;;;;;;2.76;67.07;98375.00;6215779;23;20030;-63
2023/03/04 18:31:25;;;;;;;;;;;;;;;2.79;66.90;98372.28;6215333;23;19915;-62
2023/03/04 18:33:50;;;;;;;;;;;;;;;2.84;67.14;98365.19;6215250;23;19915;-63
2023/03/04 18:36:15;;;;;;;;;;;;;;;2.90;66.76;98367.56;6214820;23;19916;-62
2023/03/04 18:38:40;;;;;;;;;;;;;;;3.19;72.96;98374.31;6214269;23;19908;-61
2023/03/04 18:41:06;;;;;;;;;;;;;;;3.09;66.71;98360.81;6215449;23;20350;-61
2023/03/04 18:43:32;;;;;;;;;;;;;;;3.06;66.54;98366.16;6188009;23;20316;-60
2023/03/04 18:46:08;;;;;;;;;;;;;;;3.05;66.54;98364.44;6214278;23;19927;-62
2023/03/04 18:48:34;;;;;;;;;;;;;;;2.99;66.45;98372.41;6185295;23;19988;-62
2023/03/04 18:51:00;;;;;;;;;;;;;;;2.96;66.38;98372.56;6186725;23;19912;-63
2023/03/04 18:53:26;;;;;;;;;;;;;;;2.97;66.42;98369.06;6215381;23;20298;-63
2023/03/04 18:55:52;;;;;;;;;;;;;;;2.96;66.33;98372.56;6188140;23;20251;-63
2023/03/04 18:58:17;;;;;;;;;;;;;;;2.87;66.71;98359.06;6214424;23;19908;-63
2023/03/04 19:00:42;;;;;;;;;;;;;;;2.88;66.96;98364.19;6187660;23;19916;-62
2023/03/04 19:03:08;;;;;;;;;;;;;;;2.93;66.57;98364.88;6214871;23;19908;-62
2023/03/04 19:05:33;;;;;;;;;;;;;;;2.96;66.63;98364.78;6188781;23;19914;-62
2023/03/04 19:07:59;;;;;;;;;;;;;;;2.93;66.70;98367.47;6214863;23;19952;-63
2023/03/04 19:10:24;;;;;;;;;;;;;;;2.95;66.63;98365.66;6214572;23;19908;-62
2023/03/04 19:12:49;;;;;;;;;;;;;;;2.98;66.68;98368.13;6214851;23;20025;-62
2023/03/04 19:15:14;;;;;;;;;;;;;;;2.99;66.72;98362.06;6214521;23;19912;-62
2023/03/04 19:17:40;;;;;;;;;;;;;;;2.97;66.77;98366.47;6214792;23;19912;-62
2023/03/04 19:20:06;;;;;;;;;;;;;;;2.93;66.41;98367.47;6213410;23;19912;-62
2023/03/04 19:22:31;;;;;;;;;;;;;;;2.96;66.81;98366.50;6187987;23;19915;-62
2023/03/04 19:24:56;;;;;;;;;;;;;;;2.90;66.76;98367.56;6213711;23;19908;-63
2023/03/04 19:27:22;;;;;;;;;;;;;;;2.89;66.86;98360.72;6214852;23;19908;-63
2023/03/04 19:29:47;;;;;;;;;;;;;;;2.88;66.57;98358.16;6214164;23;19919;-63
2023/03/04 19:32:12;;;;;;;;;;;;;;;2.88;67.11;98364.19;6214331;23;19915;-62
2023/03/04 19:34:37;;;;;;;;;;;;;;;2.83;67.08;98356.59;6214044;23;19916;-62
2023/03/04 19:37:03;;;;;;;;;;;;;;;2.82;67.49;98356.63;6213395;23;19908;-63
2023/03/04 19:39:28;;;;;;;;;;;;;;;2.85;67.20;98359.09;6187602;23;20015;-62
2023/03/04 19:41:53;;;;;;;;;;;;;;;2.88;66.73;98350.38;6214281;23;19927;-63
2023/03/04 19:44:18;;;;;;;;;;;;;;;2.89;66.94;98352.94;6214748;23;20309;-63
2023/03/04 19:46:44;;;;;;;;;;;;;;;2.89;67.20;98349.47;6215427;23;20224;-63
2023/03/04 19:49:09;;;;;;;;;;;;;;;2.87;66.62;98352.13;6188076;23;19919;-62
2023/03/04 19:51:34;;;;;;;;;;;;;;;2.87;66.95;98348.69;6213937;23;19962;-60
2023/03/04 19:54:00;;;;;;;;;;;;;;;2.90;67.15;98340.81;6188150;23;19907;-62
2023/03/04 19:56:25;;;;;;;;;;;;;;;2.94;66.39;98343.25;6188461;23;20382;-62
2023/03/04 19:58:53;;;;;;;;;;;;;;;2.94;66.70;98338.06;6215102;23;19908;-62
2023/03/04 20:01:26;;;;;;;;;;;;;;;2.93;66.93;98341.56;6213543;23;19942;-62
2023/03/04 20:03:58;;;;;;;;;;;;;;;2.88;66.47;98335.69;6214053;23;19907;-62
2023/03/04 20:06:23;;;;;;;;;;;;;;;2.87;66.74;98344.38;6214917;23;19914;-62
2023/03/04 20:08:49;;;;;;;;;;;;;;;2.89;67.26;98345.16;6214973;23;20310;-62
2023/03/04 20:11:14;;;;;;;;;;;;;;;2.78;67.05;98342.94;6187839;23;19912;-64
2023/03/04 20:13:39;;;;;;;;;;;;;;;2.82;67.29;98348.84;6213400;23;19912;-62
2023/03/04 20:16:08;;;;;;;;;;;;;;;2.86;67.13;98350.44;6213934;23;20362;-63
2023/03/04 20:18:33;;;;;;;;;;;;;;;2.86;66.98;98353.03;6187131;23;19908;-62
2023/03/04 20:20:58;;;;;;;;;;;;;;;2.88;67.07;98348.63;6213687;23;20273;-62
2023/03/04 20:23:24;;;;;;;;;;;;;;;2.91;66.78;98352.88;6213558;23;20280;-62
2023/03/04 20:25:49;;;;;;;;;;;;;;;2.87;66.87;98340.94;6213666;23;20300;-63
2023/03/04 20:28:14;;;;;;;;;;;;;;;2.84;66.79;98352.25;6214335;23;20349;-63
2023/03/04 20:30:39;;;;;;;;;;;;;;;2.83;67.00;98347.97;6213840;23;20251;-63
2023/03/04 20:33:05;;;;;;;;;;;;;;;2.75;66.85;98347.38;6186268;23;20267;-63
2023/03/04 20:35:30;;;;;;;;;;;;;;;2.75;67.43;98348.25;6214205;23;20299;-62
2023/03/04 20:37:55;;;;;;;;;;;;;;;2.76;67.59;98349.09;6214099;23;20022;-62
2023/03/04 20:40:20;;;;;;;;;;;;;;;2.73;67.66;98350.03;6214021;23;19939;-62